createdAt,value
2023-09-06T00:01:00.841Z,91.84
2023-09-06T00:06:02.669Z,91.83
2023-09-06T00:11:07.419Z,91.59
2023-09-06T00:16:09.096Z,92.65
2023-09-06T00:21:10.856Z,92.76
2023-09-06T00:26:12.560Z,93.13
2023-09-06T00:31:14.437Z,93.94
2023-09-06T00:36:16.189Z,93.41
2023-09-06T00:41:18.848Z,93.70
2023-09-06T00:46:20.899Z,94.09
2023-09-06T00:51:22.646Z,93.87
2023-09-06T00:56:24.297Z,94.34
2023-09-06T01:01:26.160Z,95.58
2023-09-06T01:06:29.774Z,96.17
2023-09-06T01:11:33.136Z,96.37
2023-09-06T01:16:41.575Z,97.27
2023-09-06T01:21:49.927Z,97.42
2023-09-06T01:26:51.858Z,97.66
2023-09-06T01:31:53.659Z,98.08
2023-09-06T01:36:55.450Z,98.22
2023-09-06T01:41:57.249Z,98.38
2023-09-06T01:46:59.020Z,97.86
2023-09-06T01:52:01.135Z,97.64
2023-09-06T01:57:02.852Z,97.95
2023-09-06T02:02:05.611Z,97.97
2023-09-06T02:07:07.349Z,97.68
2023-09-06T02:12:09.143Z,97.97
2023-09-06T02:17:10.878Z,98.11
2023-09-06T02:22:12.757Z,98.11
2023-09-06T02:27:14.915Z,97.83
2023-09-06T02:32:19.940Z,98.25
2023-09-06T02:37:21.670Z,99.42
2023-09-06T02:42:23.642Z,99.08
2023-09-06T02:47:29.875Z,99.25
2023-09-06T02:52:34.305Z,99.64
2023-09-06T02:57:36.187Z,99.26
2023-09-06T03:02:37.897Z,99.70
2023-09-06T03:07:41.618Z,99.74
2023-09-06T03:12:45.099Z,100.00
2023-09-06T03:17:48.308Z,99.89
2023-09-06T03:22:51.400Z,100.00
2023-09-06T03:28:01.437Z,100.00
2023-09-06T03:33:07.463Z,99.79
2023-09-06T03:38:12.192Z,100.00
2023-09-06T03:43:17.152Z,99.90
2023-09-06T03:48:21.799Z,99.11
2023-09-06T03:53:27.772Z,99.15
2023-09-06T03:58:30.626Z,99.50
2023-09-06T04:03:33.535Z,99.78
2023-09-06T04:08:37.681Z,99.78
2023-09-06T04:13:40.488Z,99.57
2023-09-06T04:18:43.615Z,99.74
2023-09-06T04:23:46.041Z,99.53
2023-09-06T04:28:51.188Z,100.00
2023-09-06T04:33:55.123Z,100.00
2023-09-06T04:38:59.906Z,100.00
2023-09-06T04:44:04.089Z,99.70
2023-09-06T04:49:06.124Z,99.23
2023-09-06T04:54:10.785Z,98.69
2023-09-06T04:59:14.003Z,97.92
2023-09-06T05:04:16.173Z,98.31
2023-09-06T05:09:20.549Z,98.16
2023-09-06T05:14:22.699Z,97.42
2023-09-06T05:19:28.785Z,97.00
2023-09-06T05:24:31.234Z,96.87
2023-09-06T05:29:33.849Z,96.30
2023-09-06T05:34:35.914Z,95.52
2023-09-06T05:39:41.174Z,94.55
2023-09-06T05:44:44.165Z,93.42
2023-09-06T05:49:48.025Z,90.95
2023-09-06T05:54:53.869Z,89.55
2023-09-06T05:59:58.899Z,87.63
2023-09-06T06:05:00.683Z,85.28
2023-09-06T06:10:02.569Z,79.11
2023-09-06T06:15:04.642Z,73.83
2023-09-06T06:20:12.262Z,72.31
2023-09-06T06:25:14.277Z,69.17
2023-09-06T06:30:16.100Z,67.17
2023-09-06T06:35:17.798Z,68.47
2023-09-06T06:40:19.597Z,66.70
2023-09-06T06:45:21.301Z,65.94
2023-09-06T06:50:23.550Z,62.18
2023-09-06T06:55:25.361Z,63.29
2023-09-06T07:00:35.607Z,64.15
2023-09-06T07:05:37.333Z,63.86
2023-09-06T07:10:39.058Z,66.20
2023-09-06T07:15:41.274Z,65.98
2023-09-06T07:20:43.544Z,63.69
2023-09-06T07:25:45.972Z,63.44
2023-09-06T07:30:47.663Z,62.88
2023-09-06T07:35:49.291Z,63.02
2023-09-06T07:41:04.648Z,65.69
2023-09-06T07:46:11.145Z,64.44
2023-09-06T07:51:13.425Z,65.25
2023-09-06T07:56:15.156Z,64.99
2023-09-06T08:01:19.460Z,64.43
2023-09-06T08:06:21.611Z,64.30
2023-09-06T08:11:23.444Z,63.62
2023-09-06T08:16:25.236Z,62.08
2023-09-06T08:21:27.106Z,61.85
2023-09-06T08:26:29.601Z,62.42
2023-09-06T08:31:31.456Z,61.00
2023-09-06T08:36:33.192Z,61.14
2023-09-06T08:41:35.003Z,61.08
2023-09-06T08:46:42.730Z,61.30
2023-09-06T08:51:44.709Z,59.62
2023-09-06T08:56:46.697Z,58.42
2023-09-06T09:01:48.504Z,58.66
2023-09-06T09:06:50.342Z,56.87
2023-09-06T09:11:53.165Z,57.39
2023-09-06T09:16:59.232Z,57.80
2023-09-06T09:22:00.950Z,56.38
2023-09-06T09:27:04.168Z,55.21
2023-09-06T09:32:06.128Z,55.17
2023-09-06T09:37:09.655Z,55.05
2023-09-06T09:42:11.943Z,53.78
2023-09-06T09:47:35.062Z,52.19
2023-09-06T09:52:37.337Z,52.13
2023-09-06T09:57:40.125Z,51.55
2023-09-06T10:02:47.017Z,49.98
2023-09-06T10:07:50.071Z,50.32
2023-09-06T10:12:53.229Z,50.39
2023-09-06T10:17:58.941Z,48.67
2023-09-06T10:23:01.292Z,47.85
2023-09-06T10:28:03.046Z,48.44
2023-09-06T10:33:05.034Z,46.71
2023-09-06T10:38:08.951Z,44.81
2023-09-06T10:43:11.438Z,43.05
2023-09-06T10:48:13.390Z,42.59
2023-09-06T10:53:20.160Z,43.15
2023-09-06T10:58:25.040Z,42.05
2023-09-06T11:03:33.148Z,43.16
2023-09-06T11:08:35.037Z,42.73
2023-09-06T11:13:38.370Z,42.91
2023-09-06T11:18:51.362Z,41.45
2023-09-06T11:23:54.886Z,41.64
2023-09-06T11:29:06.386Z,40.49
2023-09-06T11:34:10.457Z,41.40
2023-09-06T11:39:20.029Z,40.83
2023-09-06T11:44:24.521Z,40.51
2023-09-06T11:49:27.180Z,41.27
2023-09-06T11:54:33.009Z,40.60
2023-09-06T11:59:34.771Z,39.77
2023-09-06T12:04:36.579Z,39.36
2023-09-06T12:09:38.305Z,39.81
2023-09-06T12:14:43.806Z,39.37
2023-09-06T12:19:45.794Z,38.95
2023-09-06T12:24:48.758Z,37.99
2023-09-06T12:29:50.680Z,38.50
2023-09-06T12:34:53.750Z,37.75
2023-09-06T12:39:55.853Z,37.38
2023-09-06T12:44:57.619Z,37.29
2023-09-06T12:50:01.045Z,35.93
2023-09-06T12:55:05.894Z,35.57
2023-09-06T13:00:08.778Z,36.42
2023-09-06T13:05:11.527Z,36.87
2023-09-06T13:10:13.843Z,38.00
2023-09-06T13:15:15.605Z,33.87
2023-09-06T13:20:17.343Z,36.69
2023-09-06T13:25:19.531Z,38.59
2023-09-06T13:30:21.580Z,39.44
2023-09-06T13:35:23.626Z,40.76
2023-09-06T13:40:25.399Z,40.66
2023-09-06T13:45:30.111Z,41.04
2023-09-06T13:50:32.334Z,40.23
2023-09-06T13:55:34.096Z,41.64
2023-09-06T14:00:35.886Z,40.80
2023-09-06T14:05:38.282Z,41.10
2023-09-06T14:10:40.069Z,41.19
2023-09-06T14:15:41.782Z,41.74
2023-09-06T14:20:43.563Z,41.75
2023-09-06T14:25:45.304Z,40.25
2023-09-06T14:30:47.042Z,39.32
2023-09-06T14:35:48.684Z,38.66
2023-09-06T14:40:50.407Z,39.34
2023-09-06T14:45:52.258Z,39.76
2023-09-06T14:51:04.659Z,39.39
2023-09-06T14:56:07.243Z,39.83
2023-09-06T15:01:09.869Z,39.35
2023-09-06T15:06:13.793Z,38.97
2023-09-06T15:11:15.481Z,39.69
2023-09-06T15:16:17.252Z,38.94
2023-09-06T15:21:18.944Z,40.14
2023-09-06T15:26:22.423Z,39.89
2023-09-06T15:31:25.318Z,40.09
2023-09-06T15:36:31.223Z,41.18
2023-09-06T15:41:33.762Z,39.76
2023-09-06T15:46:36.685Z,39.24
2023-09-06T15:51:38.497Z,40.04
2023-09-06T15:56:40.357Z,40.88
2023-09-06T16:01:42.925Z,41.00
2023-09-06T16:06:44.727Z,39.96
2023-09-06T16:11:46.404Z,40.05
2023-09-06T16:16:48.164Z,39.93
2023-09-06T16:21:49.904Z,40.76
2023-09-06T16:26:55.962Z,41.45
2023-09-06T16:31:57.872Z,41.05
2023-09-06T16:37:00.066Z,41.19
2023-09-06T16:42:02.306Z,42.06
2023-09-06T16:47:06.108Z,41.95
2023-09-06T16:52:09.067Z,41.63
2023-09-06T16:57:10.960Z,42.08
2023-09-06T17:02:12.846Z,43.05
2023-09-06T17:07:14.869Z,43.62
2023-09-06T17:12:16.560Z,43.44
2023-09-06T17:17:20.237Z,43.50
2023-09-06T17:22:22.051Z,43.95
2023-09-06T17:27:23.771Z,44.18
2023-09-06T17:32:27.064Z,44.52
2023-09-06T17:37:29.124Z,45.41
2023-09-06T17:42:32.545Z,45.44
2023-09-06T17:47:34.540Z,46.22
2023-09-06T17:52:39.591Z,46.67
2023-09-06T17:57:42.890Z,46.85
2023-09-06T18:02:45.480Z,47.49
2023-09-06T18:07:47.775Z,49.48
2023-09-06T18:12:49.525Z,50.86
2023-09-06T18:17:52.520Z,52.07
2023-09-06T18:22:55.025Z,52.69
2023-09-06T18:27:56.775Z,53.49
2023-09-06T18:32:58.518Z,54.33
2023-09-06T18:38:00.273Z,55.02
2023-09-06T18:43:03.623Z,55.73
2023-09-06T18:48:08.409Z,56.68
2023-09-06T18:53:10.832Z,57.26
2023-09-06T18:58:12.853Z,58.76
2023-09-06T19:03:15.099Z,59.29
2023-09-06T19:08:17.514Z,60.32
2023-09-06T19:13:20.083Z,61.18
2023-09-06T19:18:21.750Z,62.39
2023-09-06T19:23:23.536Z,63.24
2023-09-06T19:28:25.511Z,64.26
2023-09-06T19:33:27.958Z,64.85
2023-09-06T19:38:31.334Z,64.76
2023-09-06T19:43:33.266Z,64.78
2023-09-06T19:48:41.194Z,65.37
2023-09-06T19:53:49.080Z,65.20
2023-09-06T19:58:54.283Z,65.38
2023-09-06T20:03:56.063Z,65.52
2023-09-06T20:08:59.094Z,66.14
2023-09-06T20:14:01.274Z,66.87
2023-09-06T20:19:03.529Z,67.63
2023-09-06T20:24:05.546Z,68.18
2023-09-06T20:29:09.817Z,68.70
2023-09-06T20:34:11.720Z,70.06
2023-09-06T20:39:13.705Z,70.34
2023-09-06T20:44:15.382Z,71.52
2023-09-06T20:49:17.731Z,71.79
2023-09-06T20:54:19.463Z,72.70
2023-09-06T20:59:21.209Z,73.63
2023-09-06T21:04:23.010Z,74.08
2023-09-06T21:09:25.074Z,75.56
2023-09-06T21:14:26.742Z,75.48
2023-09-06T21:19:30.127Z,75.67
2023-09-06T21:24:32.290Z,75.90
2023-09-06T21:29:33.968Z,76.66
2023-09-06T21:34:35.702Z,77.27
2023-09-06T21:39:37.444Z,77.56
2023-09-06T21:44:39.594Z,78.13
2023-09-06T21:49:41.370Z,78.98
2023-09-06T21:54:43.137Z,80.10
2023-09-06T21:59:44.983Z,80.45
2023-09-06T22:04:46.723Z,80.94
2023-09-06T22:10:07.816Z,81.40
2023-09-06T22:15:28.532Z,81.46
2023-09-06T22:20:32.913Z,81.92
2023-09-06T22:25:35.400Z,82.36
2023-09-06T22:30:43.706Z,82.68
2023-09-06T22:35:45.625Z,83.00
2023-09-06T22:40:47.408Z,83.56
2023-09-06T22:45:51.286Z,83.90
2023-09-06T22:50:53.095Z,84.14
2023-09-06T22:55:54.903Z,84.32
2023-09-06T23:01:04.712Z,84.48
2023-09-06T23:06:11.451Z,84.76
2023-09-06T23:11:16.760Z,85.77
2023-09-06T23:16:18.528Z,86.57
2023-09-06T23:21:23.224Z,86.63
2023-09-06T23:26:32.463Z,87.55
2023-09-06T23:31:38.233Z,87.72
2023-09-06T23:36:40.188Z,88.18
2023-09-06T23:41:42.865Z,88.07
2023-09-06T23:46:44.772Z,88.15
2023-09-06T23:51:46.639Z,89.00
2023-09-06T23:56:48.402Z,90.14
